createdAt,value
2018-02-06T00:00:06.844Z,63.92
2018-02-06T00:02:34.918Z,62.49
2018-02-06T00:05:03.711Z,61.53
2018-02-06T00:07:32.178Z,65.54
2018-02-06T00:10:00.634Z,63.51
2018-02-06T00:12:29.013Z,63.73
2018-02-06T00:14:57.397Z,63.16
2018-02-06T00:17:25.809Z,67.46
2018-02-06T00:19:54.303Z,62.68
2018-02-06T00:22:22.683Z,65.69
2018-02-06T00:24:51.052Z,66.66
2018-02-06T00:27:19.426Z,65.03
2018-02-06T00:29:48.119Z,64.88
2018-02-06T00:32:16.512Z,61.27
2018-02-06T00:34:44.862Z,65.90
2018-02-06T00:37:13.265Z,66.73
2018-02-06T00:39:41.691Z,64.49
2018-02-06T00:42:10.290Z,63.45
2018-02-06T00:44:38.705Z,64.78
2018-02-06T00:47:07.054Z,65.33
2018-02-06T00:49:35.425Z,63.57
2018-02-06T00:52:03.785Z,65.67
2018-02-06T00:54:32.555Z,63.92
2018-02-06T00:57:01.045Z,65.23
2018-02-06T01:01:56.957Z,66.14
2018-02-06T01:04:25.283Z,65.07
2018-02-06T01:06:53.707Z,62.29
2018-02-06T01:09:22.069Z,68.22
2018-02-06T01:11:50.430Z,65.35
2018-02-06T01:14:18.781Z,66.33
2018-02-06T01:16:47.141Z,65.61
2018-02-06T01:19:15.637Z,62.41
2018-02-06T01:21:44.025Z,63.78
2018-02-06T01:24:12.566Z,61.46
2018-02-06T01:26:40.968Z,61.38
2018-02-06T01:29:09.336Z,66.81
2018-02-06T01:31:38.061Z,64.01
2018-02-06T01:34:06.467Z,64.44
2018-02-06T01:36:34.821Z,63.44
2018-02-06T01:39:03.182Z,64.95
2018-02-06T01:41:31.582Z,65.25
2018-02-06T01:44:00.258Z,67.32
2018-02-06T01:46:28.647Z,67.37
2018-02-06T01:48:57.078Z,67.10
2018-02-06T01:51:25.463Z,66.17
2018-02-06T01:53:53.847Z,64.41
2018-02-06T01:56:22.216Z,62.45
2018-02-06T01:58:50.594Z,63.74
2018-02-06T02:01:19.064Z,62.79
2018-02-06T02:03:47.441Z,60.82
2018-02-06T02:06:15.822Z,61.12
2018-02-06T02:08:44.224Z,63.66
2018-02-06T02:11:12.581Z,64.74
2018-02-06T02:13:41.004Z,63.94
2018-02-06T02:16:09.391Z,63.93
2018-02-06T02:18:37.787Z,63.89
2018-02-06T02:21:06.249Z,65.17
2018-02-06T02:23:34.614Z,67.06
2018-02-06T02:26:03.029Z,68.51
2018-02-06T02:28:31.415Z,63.43
2018-02-06T02:30:59.758Z,64.47
2018-02-06T02:33:28.157Z,63.70
2018-02-06T02:35:56.549Z,65.30
2018-02-06T02:38:24.975Z,63.39
2018-02-06T02:40:53.363Z,65.45
2018-02-06T04:39:41.730Z,62.39
2018-02-06T04:42:10.129Z,62.17
2018-02-06T04:44:38.563Z,63.40
2018-02-06T04:47:06.913Z,63.44
2018-02-06T04:49:35.280Z,63.96
2018-02-06T04:52:03.646Z,62.54
2018-02-06T04:54:31.999Z,62.09
2018-02-06T04:57:00.350Z,62.90
2018-02-06T04:59:28.725Z,61.43
2018-02-06T05:01:57.090Z,61.61
2018-02-06T05:04:25.466Z,62.54
2018-02-06T05:06:53.931Z,63.91
2018-02-06T05:09:22.327Z,62.57
2018-02-06T05:11:50.718Z,66.78
2018-02-06T05:14:19.086Z,67.88
2018-02-06T05:16:47.447Z,64.48
2018-02-06T05:19:15.883Z,63.39
2018-02-06T05:21:44.259Z,64.10
2018-02-06T05:24:12.653Z,62.96
2018-02-06T05:26:41.070Z,64.84
2018-02-06T05:29:09.450Z,62.90
2018-02-06T05:31:37.907Z,61.73
2018-02-06T05:34:06.280Z,61.38
2018-02-06T05:36:34.646Z,63.49
2018-02-06T05:39:03.002Z,63.83
2018-02-06T05:41:31.403Z,63.51
2018-02-06T05:43:59.824Z,65.47
2018-02-06T05:46:28.313Z,62.45
2018-02-06T05:48:56.679Z,61.88
2018-02-06T05:51:25.079Z,63.27
2018-02-06T05:53:53.492Z,63.13
2018-02-06T05:56:21.925Z,60.06
2018-02-06T05:58:50.304Z,62.11
2018-02-06T06:01:18.690Z,60.35
2018-02-06T06:03:47.078Z,60.44
2018-02-06T06:06:15.448Z,61.66
2018-02-06T06:08:43.903Z,62.15
2018-02-06T06:11:12.288Z,61.02
2018-02-06T06:13:40.770Z,59.52
2018-02-06T06:16:09.120Z,58.21
2018-02-06T06:18:37.494Z,58.61
2018-02-06T06:21:05.895Z,62.43
2018-02-06T06:23:34.368Z,61.85
2018-02-06T06:26:02.781Z,59.87
2018-02-06T06:28:31.174Z,61.60
2018-02-06T06:30:59.568Z,61.73
2018-02-06T06:33:28.015Z,62.32
2018-02-06T06:35:56.393Z,62.94
2018-02-06T06:38:24.763Z,62.35
2018-02-06T06:40:53.159Z,61.85
2018-02-06T06:43:21.551Z,60.84
2018-02-06T06:45:50.008Z,61.52
2018-02-06T06:48:18.391Z,61.03
2018-02-06T06:50:46.813Z,62.41
2018-02-06T06:53:15.199Z,60.99
2018-02-06T06:55:43.665Z,60.38
2018-02-06T06:58:12.089Z,59.61
2018-02-06T07:00:40.513Z,63.02
2018-02-06T07:03:08.862Z,60.74
2018-02-06T07:05:37.249Z,61.95
2018-02-06T07:08:05.602Z,62.15
2018-02-06T07:10:34.061Z,63.76
2018-02-06T07:13:02.453Z,59.58
2018-02-06T07:15:30.823Z,59.75
2018-02-06T07:17:59.178Z,58.75
2018-02-06T07:20:27.552Z,59.72
2018-02-06T07:22:56.005Z,61.29
2018-02-06T07:25:24.387Z,59.46
2018-02-06T07:27:52.769Z,60.35
2018-02-06T07:30:21.173Z,59.65
2018-02-06T07:32:49.560Z,59.95
2018-02-06T07:35:17.963Z,58.79
2018-02-06T07:37:46.381Z,59.61
2018-02-06T07:40:14.809Z,61.73
2018-02-06T07:42:43.173Z,59.99
2018-02-06T07:45:11.545Z,60.30
2018-02-06T07:47:39.954Z,58.56
2018-02-06T07:50:08.391Z,60.25
2018-02-06T07:52:36.838Z,58.96
2018-02-06T07:55:05.390Z,58.01
2018-02-06T07:57:33.796Z,58.96
2018-02-06T08:00:02.227Z,58.70
2018-02-06T08:02:30.649Z,58.03
2018-02-06T08:04:59.434Z,57.37
2018-02-06T08:07:27.782Z,57.33
2018-02-06T08:09:56.178Z,57.57
2018-02-06T08:12:24.592Z,55.98
2018-02-06T08:14:52.958Z,54.99
2018-02-06T08:17:21.430Z,57.44
2018-02-06T08:19:49.850Z,56.09
2018-02-06T08:22:18.205Z,57.13
2018-02-06T08:24:46.676Z,56.69
2018-02-06T08:27:15.143Z,56.63
2018-02-06T08:29:43.607Z,53.68
2018-02-06T08:32:11.991Z,53.64
2018-02-06T08:34:40.373Z,53.07
2018-02-06T08:37:08.787Z,55.72
2018-02-06T08:39:37.271Z,52.44
2018-02-06T08:42:05.734Z,51.92
2018-02-06T08:44:34.210Z,51.64
2018-02-06T08:47:02.609Z,51.41
2018-02-06T08:49:31.010Z,50.68
2018-02-06T08:51:59.655Z,51.50
2018-02-06T08:54:28.152Z,50.56
2018-02-06T08:56:56.562Z,49.67
2018-02-06T08:59:24.960Z,48.88
2018-02-06T09:01:53.399Z,49.03
2018-02-06T09:04:21.857Z,51.17
2018-02-06T09:06:50.305Z,48.97
2018-02-06T09:09:18.882Z,47.69
2018-02-06T09:11:47.278Z,46.27
2018-02-06T09:14:15.661Z,44.99
2018-02-06T09:16:44.054Z,46.04
2018-02-06T09:19:12.503Z,47.44
2018-02-06T09:21:40.900Z,46.28
2018-02-06T09:24:10.190Z,45.71
2018-02-06T09:26:38.578Z,46.15
2018-02-06T09:29:07.053Z,46.51
2018-02-06T09:31:35.524Z,47.19
2018-02-06T09:34:03.905Z,47.14
2018-02-06T09:36:32.330Z,46.27
2018-02-06T09:39:00.734Z,45.67
2018-02-06T09:41:29.113Z,47.31
2018-02-06T09:43:57.571Z,46.47
2018-02-06T09:46:25.973Z,44.45
2018-02-06T09:48:54.375Z,43.20
2018-02-06T09:51:22.755Z,42.52
2018-02-06T09:53:51.146Z,42.01
2018-02-06T09:56:19.725Z,42.62
2018-02-06T09:58:48.125Z,44.17
2018-02-06T10:01:16.581Z,42.72
2018-02-06T10:03:44.990Z,45.11
2018-02-06T10:06:13.383Z,44.88
2018-02-06T10:08:41.857Z,45.60
2018-02-06T10:11:10.245Z,44.36
2018-02-06T10:13:38.642Z,44.98
2018-02-06T10:16:07.064Z,44.47
2018-02-06T10:18:35.441Z,42.49
2018-02-06T10:21:03.908Z,42.78
2018-02-06T10:23:32.287Z,41.42
2018-02-06T10:26:00.678Z,41.88
2018-02-06T10:28:29.061Z,41.71
2018-02-06T10:30:57.490Z,41.06
2018-02-06T10:33:26.058Z,41.91
2018-02-06T10:35:54.469Z,42.61
2018-02-06T10:38:22.852Z,41.88
2018-02-06T10:40:51.250Z,43.28
2018-02-06T10:43:19.649Z,44.14
2018-02-06T10:45:48.157Z,44.45
2018-02-06T10:48:16.546Z,44.83
2018-02-06T10:50:44.941Z,45.06
2018-02-06T10:53:13.334Z,46.82
2018-02-06T10:55:41.723Z,48.34
2018-02-06T10:58:10.180Z,47.67
2018-02-06T11:00:38.582Z,47.24
2018-02-06T11:03:06.986Z,48.12
2018-02-06T11:05:35.458Z,48.00
2018-02-06T11:08:03.835Z,47.98
2018-02-06T11:10:32.410Z,47.32
2018-02-06T11:13:00.914Z,46.78
2018-02-06T11:15:29.310Z,46.37
2018-02-06T11:17:57.685Z,47.56
2018-02-06T11:20:26.161Z,48.70
2018-02-06T11:22:54.647Z,47.49
2018-02-06T11:25:23.045Z,47.08
2018-02-06T11:27:51.431Z,46.06
2018-02-06T11:30:19.811Z,46.42
2018-02-06T11:32:48.246Z,45.30
2018-02-06T11:35:16.723Z,45.17
2018-02-06T11:37:45.486Z,45.63
2018-02-06T11:40:13.938Z,46.09
2018-02-06T11:42:43.018Z,46.49
2018-02-06T11:45:11.482Z,44.82
2018-02-06T11:47:39.876Z,45.04
2018-02-06T11:50:08.331Z,46.57
2018-02-06T11:52:37.637Z,45.65
2018-02-06T11:55:06.205Z,48.12
2018-02-06T11:57:34.596Z,48.21
2018-02-06T12:00:02.999Z,48.58
2018-02-06T12:02:31.402Z,46.53
2018-02-06T12:04:59.946Z,47.98
2018-02-06T12:07:28.334Z,47.96
2018-02-06T12:09:56.808Z,48.19
2018-02-06T12:12:25.194Z,49.78
2018-02-06T12:14:53.588Z,49.34
2018-02-06T12:17:22.151Z,50.12
2018-02-06T12:19:50.521Z,49.26
2018-02-06T12:22:18.919Z,51.21
2018-02-06T12:24:47.419Z,50.62
2018-02-06T12:27:15.817Z,49.70
2018-02-06T12:29:44.263Z,51.91
2018-02-06T12:32:12.737Z,52.05
2018-02-06T12:34:41.128Z,52.50
2018-02-06T12:37:09.524Z,50.67
2018-02-06T12:39:43.737Z,50.56
2018-02-06T12:42:12.214Z,51.98
2018-02-06T12:44:40.643Z,52.15
2018-02-06T12:47:09.163Z,52.20
2018-02-06T12:49:37.618Z,50.81
2018-02-06T12:52:06.017Z,49.87
2018-02-06T12:54:34.501Z,51.03
2018-02-06T12:57:02.895Z,51.03
2018-02-06T13:01:59.686Z,51.50
2018-02-06T13:04:29.164Z,51.00
2018-02-06T13:06:57.609Z,53.90
2018-02-06T13:09:26.050Z,53.86
2018-02-06T13:11:54.452Z,53.02
2018-02-06T13:14:22.852Z,51.86
2018-02-06T13:16:51.258Z,52.86
2018-02-06T13:19:19.817Z,52.32
2018-02-06T13:21:48.245Z,54.30
2018-02-06T13:24:16.633Z,55.28
2018-02-06T13:26:45.054Z,54.63
2018-02-06T13:29:13.529Z,54.91
2018-02-06T13:31:41.983Z,55.30
2018-02-06T13:34:10.381Z,55.80
2018-02-06T13:36:38.770Z,54.52
2018-02-06T13:39:07.170Z,55.09
2018-02-06T13:41:35.645Z,52.48
2018-02-06T13:44:04.102Z,55.19
2018-02-06T13:46:32.503Z,52.60
2018-02-06T13:49:01.009Z,51.62
2018-02-06T13:51:29.400Z,51.54
2018-02-06T13:53:57.776Z,50.39
2018-02-06T13:56:26.235Z,53.24
2018-02-06T13:58:54.664Z,52.89
2018-02-06T14:01:23.110Z,52.29
2018-02-06T14:03:51.501Z,53.52
2018-02-06T14:06:19.899Z,49.97
2018-02-06T14:08:48.482Z,50.09
2018-02-06T14:11:16.881Z,49.18
2018-02-06T14:13:45.289Z,50.97
2018-02-06T14:16:13.678Z,51.96
2018-02-06T14:18:42.080Z,50.81
2018-02-06T14:21:10.710Z,52.38
2018-02-06T14:23:39.115Z,50.08
2018-02-06T14:26:07.622Z,53.37
2018-02-06T14:28:36.011Z,54.85
2018-02-06T14:31:04.412Z,52.31
2018-02-06T14:33:32.911Z,52.74
2018-02-06T14:36:01.296Z,51.83
2018-02-06T14:38:29.796Z,52.19
2018-02-06T14:40:58.467Z,54.33
2018-02-06T14:43:26.864Z,53.37
2018-02-06T14:45:55.361Z,51.12
2018-02-06T14:48:23.752Z,53.62
2018-02-06T14:50:52.181Z,52.88
2018-02-06T14:53:20.583Z,52.53
2018-02-06T14:55:49.030Z,50.83
2018-02-06T14:58:17.508Z,51.68
2018-02-06T15:00:45.927Z,53.68
2018-02-06T15:03:14.334Z,51.89
2018-02-06T15:05:42.746Z,51.77
2018-02-06T15:08:11.171Z,51.92
2018-02-06T15:10:39.643Z,54.02
2018-02-06T15:13:08.033Z,52.41
2018-02-06T15:15:36.426Z,52.71
2018-02-06T15:18:04.811Z,55.45
2018-02-06T15:20:33.207Z,56.94
2018-02-06T15:23:01.730Z,53.67
2018-02-06T15:25:30.130Z,52.03
2018-02-06T15:27:58.550Z,53.88
2018-02-06T15:30:26.942Z,52.91
2018-02-06T15:32:55.342Z,55.26
2018-02-06T15:35:23.795Z,53.33
2018-02-06T15:37:52.214Z,53.17
2018-02-06T15:40:20.596Z,53.83
2018-02-06T15:42:49.008Z,52.64
2018-02-06T15:45:17.503Z,55.61
2018-02-06T15:47:46.024Z,56.73
2018-02-06T15:50:14.496Z,54.77
2018-02-06T15:52:42.949Z,53.21
2018-02-06T15:55:11.321Z,52.95
2018-02-06T15:57:39.719Z,55.29
2018-02-06T16:00:08.170Z,57.52
2018-02-06T16:02:36.587Z,55.52
2018-02-06T16:05:05.089Z,56.18
2018-02-06T16:07:33.479Z,56.96
2018-02-06T16:10:01.878Z,56.84
2018-02-06T16:12:30.422Z,57.10
2018-02-06T16:14:58.817Z,57.92
2018-02-06T16:17:27.215Z,58.28
2018-02-06T16:19:55.604Z,57.29
2018-02-06T16:22:23.996Z,56.82
2018-02-06T16:24:52.449Z,57.08
2018-02-06T16:27:20.826Z,59.51
2018-02-06T16:29:49.223Z,59.29
2018-02-06T16:32:17.627Z,58.71
2018-02-06T16:34:46.007Z,57.53
2018-02-06T16:37:14.457Z,57.30
2018-02-06T16:39:42.851Z,57.08
2018-02-06T16:42:11.233Z,56.26
2018-02-06T16:44:39.651Z,59.24
2018-02-06T16:47:08.029Z,58.07
2018-02-06T16:49:36.469Z,58.77
2018-02-06T16:52:04.865Z,56.78
2018-02-06T16:54:33.254Z,55.20
2018-02-06T16:57:03.486Z,55.12
2018-02-06T16:59:31.879Z,56.78
2018-02-06T17:02:00.325Z,56.88
2018-02-06T17:04:28.715Z,55.64
2018-02-06T17:06:57.243Z,56.34
2018-02-06T17:09:25.972Z,57.18
2018-02-06T17:14:29.715Z,59.17
2018-02-06T17:16:58.076Z,57.77
2018-02-06T17:19:26.530Z,57.83
2018-02-06T17:21:54.930Z,58.55
2018-02-06T17:24:23.613Z,59.48
2018-02-06T17:26:52.036Z,57.70
2018-02-06T17:29:20.816Z,56.23
2018-02-06T17:31:49.217Z,56.37
2018-02-06T17:34:17.743Z,58.93
2018-02-06T17:36:46.149Z,58.03
2018-02-06T17:39:36.337Z,56.71
2018-02-06T17:42:04.885Z,56.11
2018-02-06T17:44:33.417Z,58.29
2018-02-06T17:47:01.821Z,59.15
2018-02-06T17:49:30.235Z,59.65
2018-02-06T17:51:58.637Z,59.14
2018-02-06T17:54:27.043Z,57.54
2018-02-06T17:56:55.501Z,58.13
2018-02-06T17:59:23.884Z,58.33
2018-02-06T18:01:52.267Z,59.16
2018-02-06T18:04:20.660Z,57.20
2018-02-06T18:06:49.054Z,57.01
2018-02-06T18:09:17.801Z,56.10
2018-02-06T18:11:46.194Z,56.17
2018-02-06T18:14:14.575Z,56.40
2018-02-06T18:16:42.964Z,57.24
2018-02-06T18:19:11.376Z,57.17
2018-02-06T18:21:39.886Z,56.03
2018-02-06T18:24:08.276Z,57.34
2018-02-06T18:26:36.706Z,56.15
2018-02-06T18:29:05.098Z,54.51
2018-02-06T18:31:33.499Z,55.80
2018-02-06T18:34:02.013Z,55.09
2018-02-06T18:36:30.399Z,56.09
2018-02-06T18:38:58.791Z,56.18
2018-02-06T18:41:27.190Z,57.12
2018-02-06T18:43:56.123Z,58.28
2018-02-06T18:46:25.241Z,57.91
2018-02-06T18:48:53.908Z,58.76
2018-02-06T18:51:22.612Z,59.01
2018-02-06T18:53:52.181Z,59.82
2018-02-06T18:56:20.822Z,56.92
2018-02-06T18:58:49.588Z,56.67
2018-02-06T19:01:18.139Z,57.35
2018-02-06T19:03:47.837Z,56.22
2018-02-06T19:06:17.133Z,55.76
2018-02-06T19:08:45.894Z,58.69
2018-02-06T19:11:14.736Z,61.14
2018-02-06T19:13:43.563Z,60.38
2018-02-06T19:16:12.431Z,61.18
2018-02-06T19:18:41.131Z,62.08
2018-02-06T19:21:09.533Z,62.06
2018-02-06T19:23:38.080Z,60.21
2018-02-06T19:26:06.465Z,58.58
2018-02-06T19:28:34.866Z,58.57
2018-02-06T19:31:03.250Z,59.49
2018-02-06T19:33:31.621Z,60.89
2018-02-06T19:36:00.090Z,59.29
2018-02-06T19:38:28.648Z,59.62
2018-02-06T19:40:57.143Z,59.09
2018-02-06T19:43:25.534Z,60.12
2018-02-06T19:45:53.934Z,59.54
2018-02-06T19:48:22.469Z,60.84
2018-02-06T19:50:51.192Z,63.03
2018-02-06T19:53:19.619Z,61.01
2018-02-06T19:55:48.032Z,63.33
2018-02-06T19:58:16.433Z,61.83
2018-02-06T20:00:45.201Z,63.44
2018-02-06T20:03:13.589Z,61.72
2018-02-06T20:05:42.095Z,61.68
2018-02-06T20:08:10.498Z,60.25
2018-02-06T20:10:38.895Z,58.76
2018-02-06T20:13:07.359Z,57.77
2018-02-06T20:15:35.894Z,60.85
2018-02-06T20:18:04.284Z,57.39
2018-02-06T20:20:32.672Z,57.63
2018-02-06T20:23:01.073Z,56.81
2018-02-06T20:25:29.822Z,58.11
2018-02-06T20:27:58.209Z,57.22
2018-02-06T20:30:26.636Z,56.27
2018-02-06T20:32:55.010Z,55.82
2018-02-06T20:35:23.417Z,56.89
2018-02-06T20:37:51.881Z,58.05
2018-02-06T20:40:20.287Z,55.18
2018-02-06T20:42:48.674Z,56.52
2018-02-06T20:45:17.063Z,57.85
2018-02-06T20:47:45.447Z,56.56
2018-02-06T20:50:15.788Z,57.15
2018-02-06T20:52:44.178Z,58.22
2018-02-06T21:37:37.342Z,59.46
2018-02-06T21:40:05.778Z,58.85
2018-02-06T21:42:34.226Z,57.91
2018-02-06T21:45:02.605Z,58.27
2018-02-06T21:47:30.981Z,58.34
2018-02-06T21:49:59.713Z,57.74
2018-02-06T21:52:28.112Z,57.31
2018-02-06T21:54:56.513Z,58.32
2018-02-06T21:57:25.011Z,57.81
2018-02-06T21:59:53.406Z,59.23
2018-02-06T22:02:21.874Z,57.67
2018-02-06T22:04:50.282Z,58.06
2018-02-06T22:07:18.662Z,59.60
2018-02-06T22:09:47.050Z,57.70
2018-02-06T22:12:15.525Z,58.71
2018-02-06T22:14:43.995Z,58.76
2018-02-06T22:17:12.386Z,59.55
2018-02-06T22:19:40.780Z,58.53
2018-02-06T22:22:09.190Z,57.84
2018-02-06T22:24:37.601Z,56.68
2018-02-06T22:27:06.143Z,58.30
2018-02-06T22:32:27.330Z,59.49
2018-02-06T22:34:55.757Z,57.87
2018-02-06T22:37:24.166Z,57.34
2018-02-06T22:39:52.616Z,57.59
2018-02-06T22:42:21.012Z,56.04
2018-02-06T22:44:49.403Z,54.90
2018-02-06T22:47:17.792Z,57.18
2018-02-06T22:49:46.323Z,57.20
2018-02-06T22:52:14.818Z,56.39
2018-02-06T22:54:43.206Z,56.41
2018-02-06T22:57:11.600Z,56.73
2018-02-06T22:59:40.076Z,55.93
2018-02-06T23:02:08.466Z,56.20
2018-02-06T23:04:36.938Z,55.79
2018-02-06T23:07:05.341Z,56.37
2018-02-06T23:09:33.725Z,55.92
2018-02-06T23:12:02.231Z,58.77
2018-02-06T23:14:30.635Z,58.69
2018-02-06T23:16:59.276Z,56.93
2018-02-06T23:19:27.733Z,56.20
2018-02-06T23:21:56.116Z,56.62
2018-02-06T23:24:24.594Z,58.16
2018-02-06T23:26:53.001Z,58.69
2018-02-06T23:29:21.587Z,58.36
2018-02-06T23:31:49.987Z,57.55
2018-02-06T23:34:18.460Z,59.00
2018-02-06T23:36:46.899Z,57.60
2018-02-06T23:39:15.281Z,58.36
2018-02-06T23:41:43.721Z,57.40
2018-02-06T23:44:12.118Z,56.82
2018-02-06T23:46:41.653Z,56.39
2018-02-06T23:49:10.133Z,56.80
2018-02-06T23:51:38.521Z,58.21
2018-02-06T23:54:06.964Z,56.49
2018-02-06T23:56:35.748Z,56.97
2018-02-06T23:59:04.114Z,56.73
